Time;durP1;ratioP1;P1;durP2;ratioP2;P2;SDS_P1;SDS_P2;PMS_P1;PMS_P2;Temp;Humidity;BMP_temperature;BMP_pressure;BME280_temperature;BME280_humidity;BME280_pressure;Samples;Min_cycle;Max_cycle;Signal;HPM_P1;HPM_P2
2023/12/17 00:01:04;;;;;;;14.02;6.88;;;10.30;99.90;;;;;;5016600;28;20038;-88
2023/12/17 00:03:30;;;;;;;13.68;6.57;;;10.20;99.90;;;;;;5026761;28;20094;-89
2023/12/17 00:05:56;;;;;;;14.90;7.20;;;10.20;99.90;;;;;;5024053;28;20068;-86
2023/12/17 00:08:22;;;;;;;13.27;6.45;;;10.20;99.90;;;;;;5031833;28;20064;-88
2023/12/17 00:10:57;;;;;;;13.30;6.50;;;10.30;99.90;;;;;;5016938;28;20095;-86
2023/12/17 00:13:24;;;;;;;15.57;7.00;;;10.30;99.90;;;;;;5036445;28;20144;-88
2023/12/17 00:15:50;;;;;;;12.20;6.32;;;10.20;99.90;;;;;;5030049;28;20037;-87
2023/12/17 00:18:16;;;;;;;11.93;6.35;;;10.20;99.90;;;;;;5021050;28;20105;-87
2023/12/17 00:20:43;;;;;;;12.88;6.40;;;10.30;99.90;;;;;;5025074;28;20072;-86
2023/12/17 00:23:08;;;;;;;12.60;6.63;;;10.20;99.90;;;;;;5034315;28;20064;-88
2023/12/17 00:25:34;;;;;;;12.85;5.82;;;10.30;99.90;;;;;;5023284;28;20041;-88
2023/12/17 00:28:00;;;;;;;12.90;6.07;;;10.30;99.90;;;;;;5034461;28;20036;-88
2023/12/17 00:30:25;;;;;;;12.40;6.88;;;10.30;99.90;;;;;;5030914;28;20431;-88
2023/12/17 00:32:53;;;;;;;10.30;6.38;;;10.30;99.90;;;;;;5022702;28;20041;-87
2023/12/17 00:35:20;;;;;;;12.48;6.18;;;10.30;99.90;;;;;;5019721;28;20033;-87
2023/12/17 00:37:46;;;;;;;16.73;7.15;;;10.30;99.90;;;;;;5017637;28;20039;-87
2023/12/17 00:40:12;;;;;;;13.63;6.50;;;10.30;99.90;;;;;;5023242;28;20431;-88
2023/12/17 00:42:38;;;;;;;9.20;6.05;;;10.20;99.90;;;;;;5034045;28;20044;-87
2023/12/17 00:45:04;;;;;;;12.07;6.65;;;10.20;99.90;;;;;;5037887;28;20037;-87
2023/12/17 00:47:29;;;;;;;10.98;6.15;;;10.30;99.90;;;;;;5023486;28;20040;-88
2023/12/17 00:49:55;;;;;;;14.02;6.63;;;10.30;99.90;;;;;;5023034;28;20045;-88
2023/12/17 00:52:21;;;;;;;10.32;6.40;;;10.30;99.90;;;;;;5018480;28;20112;-88
2023/12/17 00:54:48;;;;;;;13.05;6.30;;;10.30;99.90;;;;;;5025878;28;20049;-87
2023/12/17 00:57:14;;;;;;;13.75;6.10;;;10.30;99.90;;;;;;5021009;28;20043;-88
2023/12/17 00:59:39;;;;;;;13.38;6.65;;;10.20;99.90;;;;;;5031164;28;20053;-89
2023/12/17 01:02:05;;;;;;;13.68;6.05;;;10.30;99.90;;;;;;5017517;28;20183;-89
2023/12/17 01:04:31;;;;;;;10.18;5.88;;;10.20;99.90;;;;;;5008939;28;20046;-88
2023/12/17 01:06:57;;;;;;;13.32;6.13;;;10.30;99.90;;;;;;5013834;28;20037;-88
2023/12/17 01:09:22;;;;;;;12.50;5.75;;;10.30;99.90;;;;;;5034778;28;20179;-88
2023/12/17 01:11:48;;;;;;;12.80;6.50;;;10.40;99.90;;;;;;5018728;28;20494;-88
2023/12/17 01:14:14;;;;;;;13.27;6.53;;;10.30;99.90;;;;;;5018461;28;20037;-88
2023/12/17 01:16:39;;;;;;;11.38;6.03;;;10.40;99.90;;;;;;5031849;28;20163;-88
2023/12/17 01:19:05;;;;;;;10.90;5.40;;;10.30;99.90;;;;;;5038379;28;20041;-87
2023/12/17 01:21:31;;;;;;;10.68;6.20;;;10.30;99.90;;;;;;5018974;28;20052;-88
2023/12/17 01:23:58;;;;;;;10.65;5.70;;;10.20;99.90;;;;;;5014023;28;20045;-88
2023/12/17 01:26:26;;;;;;;14.35;5.63;;;10.30;99.90;;;;;;5031154;28;20482;-87
2023/12/17 01:28:58;;;;;;;13.93;5.82;;;10.30;99.90;;;;;;5030264;28;20123;-88
2023/12/17 01:31:24;;;;;;;12.05;5.55;;;10.30;99.90;;;;;;5018750;28;20179;-87
2023/12/17 01:33:49;;;;;;;12.98;5.70;;;10.40;99.90;;;;;;5032158;28;20459;-88
2023/12/17 01:36:15;;;;;;;10.02;5.82;;;10.40;99.90;;;;;;5020303;28;20036;-88
2023/12/17 01:38:41;;;;;;;11.02;6.07;;;10.30;99.90;;;;;;5036700;28;20125;-88
2023/12/17 01:41:07;;;;;;;11.98;5.55;;;10.20;99.90;;;;;;5019081;28;20037;-88
2023/12/17 01:43:33;;;;;;;13.55;5.53;;;10.30;99.90;;;;;;5010336;28;20045;-87
2023/12/17 01:46:00;;;;;;;10.85;5.47;;;10.30;99.90;;;;;;5031315;28;20131;-88
2023/12/17 01:48:26;;;;;;;10.75;6.40;;;10.30;99.90;;;;;;5037007;28;20120;-87
2023/12/17 01:50:54;;;;;;;12.20;6.38;;;10.30;99.90;;;;;;5018406;28;20033;-89
2023/12/17 01:53:21;;;;;;;13.30;6.22;;;10.40;99.90;;;;;;5043609;28;20116;-87
2023/12/17 01:55:49;;;;;;;11.98;6.35;;;10.40;99.90;;;;;;5020880;28;20040;-88
2023/12/17 01:58:16;;;;;;;10.48;6.10;;;10.30;99.90;;;;;;5021564;28;20110;-87
2023/12/17 02:00:46;;;;;;;14.15;5.60;;;10.30;99.90;;;;;;5023260;28;20041;-88
2023/12/17 02:03:12;;;;;;;9.40;5.47;;;10.40;99.90;;;;;;5031913;28;20472;-87
2023/12/17 02:05:38;;;;;;;9.95;5.82;;;10.30;99.90;;;;;;5019224;28;20052;-88
2023/12/17 02:08:04;;;;;;;10.15;6.20;;;10.30;99.90;;;;;;5025616;28;20112;-88
2023/12/17 02:10:30;;;;;;;13.20;6.45;;;10.40;99.90;;;;;;5024481;28;20045;-88
2023/12/17 02:13:00;;;;;;;12.30;5.88;;;10.30;99.90;;;;;;5038010;28;20464;-88
2023/12/17 02:15:25;;;;;;;12.73;5.78;;;10.40;99.90;;;;;;5025295;28;20048;-87
2023/12/17 02:17:51;;;;;;;12.52;6.13;;;10.30;99.90;;;;;;5021903;28;20045;-87
2023/12/17 02:20:17;;;;;;;9.88;5.93;;;10.30;99.90;;;;;;5019245;28;20034;-89
2023/12/17 02:22:44;;;;;;;10.65;6.45;;;10.40;99.90;;;;;;5035360;28;20037;-88
2023/12/17 02:25:10;;;;;;;11.25;6.10;;;10.40;99.90;;;;;;5039602;28;20029;-88
2023/12/17 02:27:36;;;;;;;11.15;6.03;;;10.40;99.90;;;;;;5033618;28;20048;-88
2023/12/17 02:30:02;;;;;;;9.20;6.05;;;10.40;99.90;;;;;;5051758;28;20467;-89
2023/12/17 02:32:28;;;;;;;12.30;6.50;;;10.40;99.90;;;;;;5024585;28;20111;-87
2023/12/17 02:34:54;;;;;;;11.85;6.20;;;10.40;99.90;;;;;;5033717;28;20536;-88
2023/12/17 02:37:20;;;;;;;8.30;6.20;;;10.40;99.90;;;;;;5038176;28;20032;-89
2023/12/17 02:39:46;;;;;;;14.02;6.55;;;10.40;99.90;;;;;;5018171;28;20061;-87
2023/12/17 02:42:11;;;;;;;14.15;7.07;;;10.40;99.90;;;;;;5032625;28;20224;-87
2023/12/17 02:44:37;;;;;;;14.30;6.20;;;10.40;99.90;;;;;;5018151;28;20414;-87
2023/12/17 02:47:03;;;;;;;14.52;6.28;;;10.30;99.90;;;;;;5019834;28;20041;-88
2023/12/17 02:49:31;;;;;;;10.20;6.05;;;10.20;99.90;;;;;;5033643;28;20033;-88
2023/12/17 02:51:57;;;;;;;12.52;6.40;;;10.30;99.90;;;;;;5026023;28;20041;-87
2023/12/17 02:54:25;;;;;;;12.27;6.55;;;10.30;99.90;;;;;;5016187;28;20040;-88
2023/12/17 02:56:51;;;;;;;14.63;6.90;;;10.20;99.90;;;;;;5030402;28;20037;-88
2023/12/17 02:59:17;;;;;;;13.13;7.03;;;10.10;99.90;;;;;;5023925;28;20048;-87
2023/12/17 03:01:43;;;;;;;11.30;6.15;;;10.20;99.90;;;;;;5024810;28;20425;-88
2023/12/17 03:04:13;;;;;;;14.98;6.95;;;10.30;99.90;;;;;;5022157;28;20041;-88
2023/12/17 03:06:40;;;;;;;11.57;7.05;;;10.30;99.90;;;;;;5019921;28;20045;-87
2023/12/17 03:09:06;;;;;;;13.23;6.75;;;10.20;99.90;;;;;;5021359;28;20083;-88
2023/12/17 03:11:32;;;;;;;13.73;7.13;;;10.10;99.90;;;;;;5017215;28;20427;-88
2023/12/17 03:13:58;;;;;;;17.25;7.43;;;10.10;99.90;;;;;;5036596;28;20480;-88
2023/12/17 03:16:24;;;;;;;19.85;7.25;;;10.20;99.90;;;;;;5030975;28;20085;-89
2023/12/17 03:18:51;;;;;;;14.02;7.40;;;10.20;99.90;;;;;;5048742;28;20571;-88
2023/12/17 03:21:17;;;;;;;14.70;7.93;;;10.20;99.90;;;;;;5037703;28;20038;-88
2023/12/17 03:23:42;;;;;;;13.95;7.80;;;10.10;99.90;;;;;;5021728;28;20440;-87
2023/12/17 03:26:08;;;;;;;13.57;7.50;;;10.10;99.90;;;;;;5029761;28;20037;-87
2023/12/17 03:28:34;;;;;;;12.43;7.53;;;10.20;99.90;;;;;;5013107;28;20067;-88
2023/12/17 03:31:00;;;;;;;15.07;7.68;;;10.20;99.90;;;;;;5022895;28;20057;-88
2023/12/17 03:33:25;;;;;;;13.63;8.20;;;10.10;99.90;;;;;;5025563;28;20124;-88
2023/12/17 03:35:52;;;;;;;15.70;7.75;;;10.10;99.90;;;;;;5027033;28;20033;-88
2023/12/17 03:38:17;;;;;;;15.07;8.35;;;10.20;99.90;;;;;;5036125;28;20469;-88
2023/12/17 03:40:43;;;;;;;16.67;8.77;;;10.30;99.90;;;;;;5019626;28;20516;-88
2023/12/17 03:43:09;;;;;;;15.40;8.20;;;10.30;99.90;;;;;;5032433;28;20039;-88
2023/12/17 03:45:35;;;;;;;17.60;8.40;;;10.10;99.90;;;;;;5034922;28;20041;-86
2023/12/17 03:48:02;;;;;;;14.57;8.18;;;10.20;99.90;;;;;;5017429;28;20491;-89
2023/12/17 03:50:28;;;;;;;15.90;8.10;;;10.30;99.90;;;;;;5022982;28;20519;-88
2023/12/17 03:52:54;;;;;;;19.27;8.13;;;10.20;99.90;;;;;;5032250;28;20049;-88
2023/12/17 03:55:20;;;;;;;21.25;8.65;;;10.30;99.90;;;;;;5027542;28;20045;-88
2023/12/17 03:57:47;;;;;;;20.17;8.70;;;10.30;99.90;;;;;;5032491;28;20034;-87
2023/12/17 04:00:13;;;;;;;14.80;7.45;;;10.30;99.90;;;;;;5035535;28;20040;-88
2023/12/17 04:02:39;;;;;;;14.05;7.32;;;10.20;99.90;;;;;;5030430;28;20037;-87
2023/12/17 04:05:06;;;;;;;15.38;7.72;;;10.30;99.90;;;;;;5018912;28;20048;-88
2023/12/17 04:07:32;;;;;;;15.15;7.07;;;10.20;99.90;;;;;;5048248;28;20042;-88
2023/12/17 04:09:59;;;;;;;16.23;7.45;;;10.10;99.90;;;;;;5016183;28;20048;-88
2023/12/17 04:12:24;;;;;;;12.57;7.22;;;10.30;99.90;;;;;;5015254;28;20087;-88
2023/12/17 04:14:50;;;;;;;11.57;6.82;;;10.20;99.90;;;;;;5038960;28;20041;-88
2023/12/17 04:17:16;;;;;;;14.48;7.60;;;10.20;99.90;;;;;;5015780;28;20140;-88
2023/12/17 04:19:42;;;;;;;15.43;7.25;;;10.20;99.90;;;;;;5029785;28;20034;-88
2023/12/17 04:22:07;;;;;;;15.60;7.22;;;10.30;99.90;;;;;;5024169;28;20033;-88
2023/12/17 04:24:33;;;;;;;16.10;7.97;;;10.30;99.90;;;;;;5012178;28;20355;-88
2023/12/17 04:26:59;;;;;;;11.45;6.47;;;10.30;99.90;;;;;;5019847;28;20037;-88
2023/12/17 04:29:24;;;;;;;9.93;6.50;;;10.30;99.90;;;;;;5037337;28;20112;-88
2023/12/17 04:31:50;;;;;;;15.45;6.72;;;10.30;99.90;;;;;;5034707;28;20131;-89
2023/12/17 04:34:16;;;;;;;15.70;7.53;;;10.20;99.90;;;;;;5027751;28;20037;-88
2023/12/17 04:36:42;;;;;;;12.68;7.15;;;10.20;99.90;;;;;;5023448;28;20036;-88
2023/12/17 04:39:09;;;;;;;13.90;7.53;;;10.30;99.90;;;;;;5019260;28;20576;-88
2023/12/17 04:41:39;;;;;;;16.75;7.95;;;10.30;99.90;;;;;;5018923;28;20187;-88
2023/12/17 04:44:08;;;;;;;14.38;7.22;;;10.30;99.90;;;;;;5027433;28;20731;-88
2023/12/17 04:46:34;;;;;;;15.10;7.47;;;10.20;99.90;;;;;;5016264;28;20052;-88
2023/12/17 04:49:00;;;;;;;11.10;7.72;;;10.20;99.90;;;;;;5023807;28;20037;-88
2023/12/17 04:51:25;;;;;;;13.90;7.20;;;10.10;99.90;;;;;;5023360;28;20101;-88
2023/12/17 04:53:51;;;;;;;14.80;7.40;;;10.20;99.90;;;;;;5020881;28;20041;-87
2023/12/17 04:56:18;;;;;;;12.18;7.30;;;10.10;99.90;;;;;;5023495;28;20312;-88
2023/12/17 04:58:45;;;;;;;18.55;7.57;;;10.10;99.90;;;;;;5037357;28;20051;-87
2023/12/17 05:01:11;;;;;;;15.95;7.57;;;10.10;99.90;;;;;;5035902;28;20041;-81
2023/12/17 05:03:38;;;;;;;19.02;7.57;;;10.10;99.90;;;;;;5020256;28;20068;-82
2023/12/17 05:06:04;;;;;;;15.35;8.02;;;10.10;99.90;;;;;;5022677;28;20041;-81
2023/12/17 05:08:30;;;;;;;15.48;8.20;;;10.10;99.90;;;;;;5023220;28;20439;-81
2023/12/17 05:10:56;;;;;;;17.85;8.63;;;10.00;99.90;;;;;;5017685;28;20075;-81
2023/12/17 05:13:22;;;;;;;16.98;8.15;;;10.00;99.90;;;;;;5046542;28;20055;-81
2023/12/17 05:15:48;;;;;;;15.32;8.85;;;10.10;99.90;;;;;;5017226;28;20041;-81
2023/12/17 05:18:13;;;;;;;18.67;9.02;;;10.00;99.90;;;;;;5019979;28;20047;-81
2023/12/17 05:20:40;;;;;;;17.42;8.75;;;9.90;99.90;;;;;;5020876;28;20049;-81
2023/12/17 05:23:08;;;;;;;14.52;8.27;;;10.00;99.90;;;;;;5019706;28;20040;-81
2023/12/17 05:25:34;;;;;;;17.65;9.05;;;10.00;99.90;;;;;;5034896;28;20040;-81
2023/12/17 05:28:00;;;;;;;12.57;8.25;;;9.90;99.90;;;;;;5037707;28;20065;-81
2023/12/17 05:30:25;;;;;;;19.88;9.98;;;10.00;99.90;;;;;;5012440;28;20127;-81
2023/12/17 05:32:51;;;;;;;15.32;10.15;;;9.90;99.90;;;;;;5014391;28;20357;-81
2023/12/17 05:35:17;;;;;;;15.63;10.48;;;10.00;99.90;;;;;;5029879;28;20121;-81
2023/12/17 05:37:43;;;;;;;20.35;10.88;;;10.00;99.90;;;;;;5018193;28;20037;-81
2023/12/17 05:40:08;;;;;;;19.65;11.10;;;9.90;99.90;;;;;;5030957;28;20029;-81
2023/12/17 05:42:36;;;;;;;19.00;10.45;;;9.90;99.90;;;;;;5016212;28;20042;-81
2023/12/17 05:45:02;;;;;;;18.55;10.93;;;9.90;99.90;;;;;;5034063;28;20337;-81
2023/12/17 05:47:30;;;;;;;19.75;10.15;;;9.90;99.90;;;;;;5033853;28;20048;-81
2023/12/17 05:49:56;;;;;;;14.10;10.45;;;9.90;99.90;;;;;;5017504;28;20226;-81
2023/12/17 05:52:22;;;;;;;15.52;9.73;;;9.90;99.90;;;;;;5030609;28;20460;-81
2023/12/17 05:54:47;;;;;;;16.25;10.10;;;9.80;99.90;;;;;;5017829;28;20093;-80
2023/12/17 05:57:13;;;;;;;15.52;9.60;;;9.90;99.90;;;;;;5020005;28;20134;-81
2023/12/17 05:59:39;;;;;;;16.88;8.85;;;9.80;99.90;;;;;;5034567;28;20040;-81
2023/12/17 06:02:05;;;;;;;12.10;8.73;;;9.90;99.90;;;;;;5018476;28;20029;-81
2023/12/17 06:04:30;;;;;;;15.43;8.98;;;9.80;99.90;;;;;;5013926;28;20546;-81
2023/12/17 06:06:56;;;;;;;11.93;8.57;;;9.80;99.90;;;;;;5018209;28;20041;-81
2023/12/17 06:09:23;;;;;;;14.10;8.48;;;9.90;99.90;;;;;;5015767;28;20475;-81
2023/12/17 06:11:51;;;;;;;14.88;8.00;;;9.80;99.90;;;;;;5019270;28;20053;-81
2023/12/17 06:14:17;;;;;;;16.75;8.02;;;9.80;99.90;;;;;;5017067;28;20088;-81
2023/12/17 06:16:44;;;;;;;15.55;7.93;;;9.70;99.90;;;;;;5021099;28;20037;-81
2023/12/17 06:19:10;;;;;;;15.18;7.95;;;9.70;99.90;;;;;;5022015;28;20044;-81
2023/12/17 06:21:36;;;;;;;13.43;6.57;;;9.70;99.90;;;;;;5017166;28;20073;-81
2023/12/17 06:24:03;;;;;;;16.63;7.22;;;9.70;99.90;;;;;;5031053;28;20099;-81
2023/12/17 06:26:30;;;;;;;10.30;7.10;;;9.70;99.90;;;;;;5020177;28;20041;-81
2023/12/17 06:28:56;;;;;;;12.77;6.63;;;9.80;99.90;;;;;;5017509;28;20038;-81
2023/12/17 06:31:22;;;;;;;11.73;7.50;;;9.70;99.90;;;;;;5015003;28;20327;-81
2023/12/17 06:33:49;;;;;;;12.68;8.00;;;9.70;99.90;;;;;;5032774;28;20050;-82
2023/12/17 06:36:15;;;;;;;14.32;7.90;;;9.70;99.90;;;;;;5021888;28;20091;-81
2023/12/17 06:38:41;;;;;;;12.88;8.07;;;9.70;99.90;;;;;;5017085;28;20280;-81
2023/12/17 06:41:10;;;;;;;14.48;8.30;;;9.70;99.90;;;;;;5018718;28;20041;-81
2023/12/17 06:43:36;;;;;;;14.23;8.07;;;9.60;99.90;;;;;;5023586;28;20055;-81
2023/12/17 06:46:03;;;;;;;12.13;7.13;;;9.60;99.90;;;;;;5035943;28;20041;-81
2023/12/17 06:48:29;;;;;;;10.20;6.35;;;9.70;99.90;;;;;;5021054;28;20036;-82
2023/12/17 06:50:55;;;;;;;11.57;7.25;;;9.60;99.90;;;;;;5024033;28;20045;-81
2023/12/17 06:53:20;;;;;;;12.45;6.78;;;9.70;99.90;;;;;;5020880;28;20037;-81
2023/12/17 06:55:46;;;;;;;10.27;6.25;;;9.70;99.90;;;;;;5034822;28;20037;-81
2023/12/17 06:58:12;;;;;;;10.40;6.15;;;9.70;99.90;;;;;;5022387;28;20064;-81
2023/12/17 07:00:38;;;;;;;13.18;5.82;;;9.60;99.90;;;;;;5016240;28;20044;-81
2023/12/17 07:03:04;;;;;;;14.80;5.78;;;9.60;99.90;;;;;;5026076;28;20107;-81
2023/12/17 07:05:30;;;;;;;13.30;5.70;;;9.60;99.90;;;;;;5021120;28;20114;-80
2023/12/17 07:07:55;;;;;;;10.98;5.53;;;9.60;99.90;;;;;;5020466;28;20064;-81
2023/12/17 07:10:21;;;;;;;12.15;5.32;;;9.70;99.90;;;;;;5022908;28;20049;-81
2023/12/17 07:12:47;;;;;;;12.43;5.70;;;9.70;99.90;;;;;;5036343;28;20525;-81
2023/12/17 07:15:13;;;;;;;12.40;5.28;;;9.70;99.90;;;;;;5018251;28;20037;-81
2023/12/17 07:17:39;;;;;;;11.45;5.53;;;9.70;99.90;;;;;;5035388;28;20045;-81
2023/12/17 07:20:06;;;;;;;15.23;6.15;;;9.70;99.90;;;;;;5035748;28;20068;-81
2023/12/17 07:22:31;;;;;;;9.90;6.10;;;9.70;99.90;;;;;;5028819;28;20037;-81
2023/12/17 07:24:57;;;;;;;16.73;7.05;;;9.60;99.90;;;;;;5020216;28;20986;-80
2023/12/17 07:27:23;;;;;;;15.10;7.20;;;9.70;99.90;;;;;;5015148;28;20474;-81
2023/12/17 07:29:48;;;;;;;15.00;6.07;;;9.70;99.90;;;;;;5030150;28;20045;-81
2023/12/17 07:32:14;;;;;;;14.02;6.70;;;9.70;99.90;;;;;;5034261;28;20049;-81
2023/12/17 07:34:40;;;;;;;11.95;5.93;;;9.70;99.90;;;;;;5013659;28;20052;-81
2023/12/17 07:37:05;;;;;;;13.93;6.35;;;9.70;99.90;;;;;;5019371;28;20133;-81
2023/12/17 07:39:31;;;;;;;10.75;6.35;;;9.60;99.90;;;;;;5020958;28;20089;-81
2023/12/17 07:41:57;;;;;;;16.00;7.03;;;9.60;99.90;;;;;;5036533;28;20048;-81
2023/12/17 07:44:25;;;;;;;15.32;6.18;;;9.70;99.90;;;;;;5019180;28;20044;-81
2023/12/17 07:46:51;;;;;;;15.65;6.68;;;9.60;99.90;;;;;;5048991;28;20372;-81
2023/12/17 07:49:17;;;;;;;11.18;6.55;;;9.60;99.90;;;;;;5034975;28;20039;-81
2023/12/17 07:51:44;;;;;;;15.95;6.75;;;9.70;99.90;;;;;;5025081;28;20112;-81
2023/12/17 07:54:10;;;;;;;16.13;7.45;;;9.70;99.90;;;;;;5019532;28;20037;-81
2023/12/17 07:56:35;;;;;;;13.32;6.78;;;9.70;99.90;;;;;;5019464;28;20122;-81
2023/12/17 07:59:04;;;;;;;17.40;7.75;;;9.60;99.90;;;;;;5032253;28;20037;-81
2023/12/17 08:01:30;;;;;;;15.80;7.88;;;9.70;99.90;;;;;;5038688;28;20518;-81
2023/12/17 08:03:59;;;;;;;14.63;7.38;;;9.60;99.90;;;;;;5034801;28;20564;-81
2023/12/17 08:06:25;;;;;;;11.70;6.95;;;9.60;99.90;;;;;;5028559;28;20037;-81
2023/12/17 08:08:52;;;;;;;17.33;8.07;;;9.70;99.90;;;;;;5033876;28;20621;-81
2023/12/17 08:11:21;;;;;;;13.95;6.85;;;9.60;99.90;;;;;;5031768;28;20373;-81
2023/12/17 08:13:47;;;;;;;12.60;7.45;;;9.60;99.90;;;;;;5014705;28;20095;-81
2023/12/17 08:16:13;;;;;;;14.98;7.05;;;9.60;99.90;;;;;;5026983;28;20029;-81
2023/12/17 08:18:39;;;;;;;16.70;7.57;;;9.70;99.90;;;;;;5020574;28;20043;-81
2023/12/17 08:21:05;;;;;;;16.20;7.47;;;9.60;99.90;;;;;;5023175;28;20250;-81
2023/12/17 08:23:30;;;;;;;11.57;7.70;;;9.60;99.90;;;;;;5021902;28;20044;-81
2023/12/17 08:25:56;;;;;;;16.88;7.57;;;9.60;99.90;;;;;;5034680;28;20376;-80
2023/12/17 08:28:22;;;;;;;14.80;8.30;;;9.70;99.90;;;;;;5020840;28;20049;-81
2023/12/17 08:30:49;;;;;;;14.07;7.68;;;9.70;99.90;;;;;;5032846;28;20462;-81
2023/12/17 08:33:15;;;;;;;17.38;9.02;;;9.60;99.90;;;;;;5021332;28;20091;-81
2023/12/17 08:35:43;;;;;;;21.17;10.00;;;9.60;99.90;;;;;;5020355;28;20472;-81
2023/12/17 08:38:08;;;;;;;17.60;9.73;;;9.70;99.90;;;;;;5037406;28;20328;-81
2023/12/17 08:40:39;;;;;;;16.27;9.68;;;9.60;99.90;;;;;;5032703;28;20138;-81
2023/12/17 08:43:07;;;;;;;17.15;9.10;;;9.60;99.90;;;;;;5016160;28;20171;-81
2023/12/17 08:45:33;;;;;;;19.33;10.00;;;9.60;99.90;;;;;;5015105;28;20033;-82
2023/12/17 08:47:59;;;;;;;16.83;9.02;;;9.70;99.90;;;;;;5014574;28;20112;-81
2023/12/17 08:50:25;;;;;;;16.20;9.60;;;9.70;99.90;;;;;;5018686;28;20084;-81
2023/12/17 08:52:51;;;;;;;18.40;9.93;;;9.60;99.90;;;;;;5013148;28;20312;-81
2023/12/17 08:55:17;;;;;;;14.80;9.23;;;9.60;99.90;;;;;;5030849;28;20406;-81
2023/12/17 08:57:43;;;;;;;17.25;10.13;;;9.70;99.90;;;;;;5022447;28;20068;-81
2023/12/17 09:00:09;;;;;;;21.63;10.15;;;9.60;99.90;;;;;;5023231;28;20131;-81
2023/12/17 09:02:36;;;;;;;17.77;8.80;;;9.70;99.90;;;;;;5018953;28;20045;-81
2023/12/17 09:05:06;;;;;;;19.33;9.75;;;9.60;99.90;;;;;;5033937;28;20063;-81
2023/12/17 09:07:32;;;;;;;17.73;9.10;;;9.70;99.90;;;;;;5035450;28;20615;-81
2023/12/17 09:09:58;;;;;;;20.02;9.43;;;9.80;99.90;;;;;;5018230;28;20037;-81
2023/12/17 09:12:23;;;;;;;22.38;10.60;;;9.70;99.90;;;;;;5023174;28;20045;-81
2023/12/17 09:14:49;;;;;;;18.73;9.55;;;9.70;99.90;;;;;;5015946;28;20344;-81
2023/12/17 09:17:15;;;;;;;25.10;11.40;;;9.70;99.90;;;;;;5020900;28;20377;-81
2023/12/17 09:19:41;;;;;;;19.17;9.43;;;9.80;99.90;;;;;;5018682;28;20457;-81
2023/12/17 09:22:07;;;;;;;17.17;10.45;;;9.80;99.90;;;;;;5033197;28;20036;-81
2023/12/17 09:24:33;;;;;;;20.90;9.93;;;9.90;99.90;;;;;;5018501;28;20693;-81
2023/12/17 09:26:59;;;;;;;21.80;9.80;;;9.80;99.90;;;;;;5027245;28;20033;-81
2023/12/17 09:29:25;;;;;;;23.08;10.30;;;9.90;99.90;;;;;;5021143;28;20048;-81
2023/12/17 09:31:51;;;;;;;24.70;11.13;;;9.90;99.90;;;;;;5019844;28;20556;-81
2023/12/17 09:34:17;;;;;;;21.77;10.05;;;9.90;99.90;;;;;;5034169;28;20049;-81
2023/12/17 09:36:43;;;;;;;24.55;10.95;;;10.00;99.90;;;;;;5011438;28;20411;-81
2023/12/17 09:39:09;;;;;;;26.45;10.88;;;10.00;99.90;;;;;;5018078;28;20525;-81
2023/12/17 09:41:35;;;;;;;21.42;10.50;;;10.00;99.90;;;;;;5015770;28;20071;-81
2023/12/17 09:44:04;;;;;;;21.48;10.40;;;10.10;99.90;;;;;;5031177;28;20107;-81
2023/12/17 09:46:30;;;;;;;22.58;11.38;;;10.00;99.90;;;;;;5015374;28;20037;-81
2023/12/17 09:48:56;;;;;;;21.85;11.27;;;10.10;99.90;;;;;;5029476;28;20087;-81
2023/12/17 09:51:23;;;;;;;26.65;12.10;;;10.00;99.90;;;;;;5032019;28;20464;-81
2023/12/17 09:53:49;;;;;;;22.35;12.15;;;10.10;99.90;;;;;;5010099;28;20140;-81
2023/12/17 09:56:15;;;;;;;21.58;10.95;;;10.00;99.90;;;;;;5015710;28;20287;-81
2023/12/17 09:58:41;;;;;;;23.70;11.90;;;10.00;99.90;;;;;;5018171;28;20346;-81
2023/12/17 10:01:06;;;;;;;22.98;11.52;;;10.10;99.90;;;;;;5034370;28;20044;-81
2023/12/17 10:03:33;;;;;;;20.67;12.07;;;10.10;99.90;;;;;;5013907;28;20036;-81
2023/12/17 10:05:58;;;;;;;22.35;11.45;;;10.10;99.90;;;;;;5009491;28;20033;-81
2023/12/17 10:08:24;;;;;;;24.48;11.55;;;10.10;99.90;;;;;;5014399;28;20184;-81
2023/12/17 10:10:50;;;;;;;24.13;10.90;;;10.10;99.90;;;;;;5037218;28;20144;-81
2023/12/17 10:13:21;;;;;;;19.80;11.10;;;10.10;99.90;;;;;;5027293;28;20041;-81
2023/12/17 10:15:51;;;;;;;19.65;11.35;;;10.10;99.90;;;;;;5034642;28;20033;-81
2023/12/17 10:18:20;;;;;;;23.67;11.73;;;10.10;99.90;;;;;;5023931;28;20029;-81
2023/12/17 10:20:47;;;;;;;21.58;13.70;;;10.10;99.90;;;;;;5026908;28;20094;-81
2023/12/17 10:23:13;;;;;;;27.42;13.95;;;10.00;99.90;;;;;;5032545;28;20048;-81
2023/12/17 10:25:43;;;;;;;29.05;14.57;;;10.00;99.90;;;;;;5042601;28;20057;-81
2023/12/17 10:28:10;;;;;;;25.85;15.10;;;10.00;99.90;;;;;;5049081;28;20044;-81
2023/12/17 10:30:37;;;;;;;25.38;13.07;;;10.00;99.90;;;;;;5032938;28;20152;-81
2023/12/17 10:33:14;;;;;;;25.63;12.90;;;10.10;99.90;;;;;;5040819;28;20033;-81
2023/12/17 10:35:43;;;;;;;28.65;13.88;;;10.10;99.90;;;;;;5051380;28;20109;-81
2023/12/17 10:38:12;;;;;;;25.95;13.35;;;10.20;99.90;;;;;;5020368;28;20410;-81
2023/12/17 10:40:42;;;;;;;23.92;12.98;;;10.10;99.90;;;;;;5033037;28;20542;-81
2023/12/17 10:43:09;;;;;;;19.88;12.20;;;10.10;99.90;;;;;;5017769;28;20436;-81
2023/12/17 10:45:35;;;;;;;31.20;14.18;;;10.20;99.90;;;;;;5033796;28;20049;-81
2023/12/17 10:48:02;;;;;;;25.23;14.20;;;10.20;99.90;;;;;;5015944;28;20515;-80
2023/12/17 10:50:28;;;;;;;27.48;14.73;;;10.20;99.90;;;;;;5031282;28;20128;-81
2023/12/17 10:52:54;;;;;;;28.65;15.80;;;10.10;99.90;;;;;;5029471;28;20441;-81
2023/12/17 10:55:22;;;;;;;32.83;17.35;;;10.10;99.90;;;;;;5019053;28;20082;-81
2023/12/17 10:57:58;;;;;;;32.90;17.13;;;10.10;99.90;;;;;;5018613;28;20505;-81
2023/12/17 11:00:27;;;;;;;36.10;19.50;;;10.20;99.90;;;;;;5019945;28;20370;-81
2023/12/17 11:02:57;;;;;;;32.53;18.42;;;10.20;99.90;;;;;;5030570;28;20357;-81
2023/12/17 11:05:22;;;;;;;32.00;18.50;;;10.20;99.90;;;;;;5013769;28;20224;-81
2023/12/17 11:07:48;;;;;;;35.45;18.92;;;10.10;99.90;;;;;;5018347;28;20041;-81
2023/12/17 11:10:15;;;;;;;34.13;19.48;;;10.20;99.90;;;;;;5020822;28;20055;-81
2023/12/17 11:12:44;;;;;;;34.53;20.05;;;10.20;99.90;;;;;;5015988;28;20116;-81
2023/12/17 11:15:12;;;;;;;32.35;19.30;;;10.20;99.90;;;;;;5015755;28;20067;-81
2023/12/17 11:17:38;;;;;;;34.15;18.83;;;10.20;99.90;;;;;;5019652;28;20080;-81
2023/12/17 11:20:05;;;;;;;34.30;17.20;;;10.20;99.90;;;;;;5013272;28;20449;-81
2023/12/17 11:22:37;;;;;;;29.63;17.60;;;10.20;99.90;;;;;;5033814;28;20100;-81
2023/12/17 11:25:04;;;;;;;28.42;17.23;;;10.20;99.90;;;;;;5013515;28;20387;-81
2023/12/17 11:27:34;;;;;;;25.15;16.80;;;10.30;99.90;;;;;;5021662;28;20123;-81
2023/12/17 11:30:00;;;;;;;28.98;17.95;;;10.30;99.90;;;;;;5029265;28;20081;-81
2023/12/17 11:32:29;;;;;;;28.42;17.73;;;10.30;99.90;;;;;;5019912;28;20469;-81
2023/12/17 11:34:57;;;;;;;28.90;16.98;;;10.40;99.90;;;;;;5015800;28;20481;-81
2023/12/17 11:37:29;;;;;;;26.02;16.05;;;10.40;99.90;;;;;;5031089;28;20038;-81
2023/12/17 11:39:56;;;;;;;23.73;15.57;;;10.30;99.90;;;;;;5023312;28;20041;-81
2023/12/17 11:42:21;;;;;;;26.73;15.68;;;10.30;99.90;;;;;;5013873;28;20089;-81
2023/12/17 11:44:49;;;;;;;22.48;14.13;;;10.40;99.90;;;;;;5024056;28;20078;-81
2023/12/17 11:47:17;;;;;;;25.40;15.18;;;10.30;99.90;;;;;;5018187;28;20076;-81
2023/12/17 11:49:43;;;;;;;22.75;14.35;;;10.30;99.90;;;;;;5032515;28;20041;-81
2023/12/17 11:52:18;;;;;;;23.23;14.70;;;10.30;99.90;;;;;;5011502;28;20056;-81
2023/12/17 11:54:44;;;;;;;21.98;13.15;;;10.30;99.90;;;;;;5018386;28;20048;-81
2023/12/17 11:57:20;;;;;;;23.92;13.88;;;10.20;99.90;;;;;;5029883;28;20070;-81
2023/12/17 11:59:46;;;;;;;24.10;13.40;;;10.20;99.90;;;;;;5011741;28;20417;-81
2023/12/17 12:02:15;;;;;;;24.83;13.10;;;10.30;99.90;;;;;;5020265;28;20072;-81
2023/12/17 12:04:41;;;;;;;20.30;11.40;;;10.30;99.90;;;;;;5032379;28;20079;-81
2023/12/17 12:07:11;;;;;;;20.77;12.43;;;10.20;99.90;;;;;;5016276;28;20534;-81
2023/12/17 12:09:37;;;;;;;19.45;11.95;;;10.20;99.90;;;;;;5013125;28;20148;-81
2023/12/17 12:12:26;;;;;;;18.50;12.43;;;10.30;99.90;;;;;;5019354;28;20040;-81
2023/12/17 12:14:53;;;;;;;23.52;12.40;;;10.10;99.90;;;;;;5042403;28;20431;-81
2023/12/17 12:17:39;;;;;;;19.50;11.63;;;10.20;99.90;;;;;;5015336;28;20041;-81
2023/12/17 12:20:10;;;;;;;19.70;13.18;;;10.20;99.90;;;;;;5020170;28;20045;-81
2023/12/17 12:22:37;;;;;;;16.92;11.65;;;10.20;99.90;;;;;;5033005;28;20041;-81
2023/12/17 12:25:03;;;;;;;17.40;11.98;;;10.20;99.90;;;;;;5029244;28;20052;-80
2023/12/17 12:27:29;;;;;;;17.45;12.05;;;10.20;99.90;;;;;;5018492;28;20048;-81
2023/12/17 12:29:57;;;;;;;17.83;10.95;;;10.20;99.90;;;;;;5025645;28;20052;-80
2023/12/17 12:32:30;;;;;;;19.80;11.27;;;10.20;99.90;;;;;;5024857;28;20415;-80
2023/12/17 12:34:57;;;;;;;16.85;11.23;;;10.30;99.90;;;;;;5027443;28;20163;-81